Time;durP1;ratioP1;P1;durP2;ratioP2;P2;SDS_P1;SDS_P2;PMS_P1;PMS_P2;Temp;Humidity;BMP_temperature;BMP_pressure;BME280_temperature;BME280_humidity;BME280_pressure;Samples;Min_cycle;Max_cycle;Signal;HPM_P1;HPM_P2
2021/12/15 00:00:37;;;;;;;12.18;5.15;;;19.20;57.60;;;;;;5057347;28;20040;-46
2021/12/15 00:03:05;;;;;;;11.13;4.68;;;19.20;57.60;;;;;;5066813;28;20041;-50
2021/12/15 00:05:32;;;;;;;10.77;6.18;;;19.10;57.60;;;;;;5070246;28;20040;-50
2021/12/15 00:08:04;;;;;;;11.45;5.93;;;19.10;57.60;;;;;;5067128;28;20052;-50
2021/12/15 00:10:31;;;;;;;9.32;5.25;;;19.10;57.60;;;;;;5066722;28;20040;-47
2021/12/15 00:12:59;;;;;;;8.88;6.00;;;19.10;57.50;;;;;;5070936;28;20051;-49
2021/12/15 00:15:29;;;;;;;7.97;5.65;;;19.10;57.50;;;;;;5068370;28;20078;-49
2021/12/15 00:17:56;;;;;;;12.70;6.47;;;19.10;57.40;;;;;;5061617;28;20146;-52
2021/12/15 00:20:27;;;;;;;8.82;5.72;;;19.10;57.40;;;;;;5073472;28;20090;-52
2021/12/15 00:22:57;;;;;;;9.65;6.45;;;19.10;57.40;;;;;;5070167;28;20092;-49
2021/12/15 00:25:30;;;;;;;8.88;5.70;;;19.00;57.30;;;;;;5073196;28;20048;-51
2021/12/15 00:27:57;;;;;;;6.90;5.15;;;19.10;57.30;;;;;;5077379;28;20075;-50
2021/12/15 00:30:25;;;;;;;9.82;6.70;;;19.00;57.20;;;;;;5046780;28;20037;-47
2021/12/15 00:32:53;;;;;;;6.65;4.80;;;19.00;57.20;;;;;;5070022;28;20196;-47
2021/12/15 00:35:21;;;;;;;6.53;5.07;;;19.00;57.10;;;;;;5066225;28;20040;-45
2021/12/15 00:37:49;;;;;;;7.63;5.47;;;19.00;57.10;;;;;;5067129;28;20040;-47
2021/12/15 00:40:19;;;;;;;8.73;5.70;;;19.00;57.10;;;;;;5057184;28;20066;-53
2021/12/15 00:42:48;;;;;;;7.45;5.60;;;19.00;57.10;;;;;;5048207;28;20044;-46
2021/12/15 00:45:17;;;;;;;6.43;5.00;;;19.00;57.10;;;;;;5046524;28;20041;-49
2021/12/15 00:47:44;;;;;;;10.63;5.10;;;18.90;57.00;;;;;;5064300;28;20049;-48
2021/12/15 00:50:15;;;;;;;6.13;4.57;;;19.00;57.00;;;;;;5070244;28;20040;-50
2021/12/15 00:52:44;;;;;;;5.68;5.03;;;19.00;57.00;;;;;;5069666;28;20039;-48
2021/12/15 00:55:16;;;;;;;5.95;5.35;;;19.00;57.00;;;;;;5071981;28;20041;-46
2021/12/15 00:57:43;;;;;;;12.02;5.50;;;18.90;56.90;;;;;;5068361;28;20127;-47
2021/12/15 01:00:16;;;;;;;8.93;5.28;;;19.00;56.90;;;;;;5050520;28;20041;-48
2021/12/15 01:02:43;;;;;;;7.18;5.45;;;19.00;56.90;;;;;;5080182;28;20450;-49
2021/12/15 01:05:13;;;;;;;8.07;5.65;;;18.90;56.80;;;;;;5069583;28;20155;-52
2021/12/15 01:07:41;;;;;;;6.50;5.00;;;18.90;56.80;;;;;;5068436;28;20040;-50
2021/12/15 01:10:10;;;;;;;7.07;5.13;;;18.90;56.80;;;;;;5065418;28;20040;-50
2021/12/15 01:12:51;;;;;;;6.38;3.80;;;18.90;56.70;;;;;;5057797;28;20497;-49
2021/12/15 01:20:56;;;;;;;7.60;4.03;;;18.90;56.70;;;;;;5060920;28;20558;-47
2021/12/15 01:23:28;;;;;;;7.68;4.97;;;18.90;56.60;;;;;;5069447;28;20051;-48
2021/12/15 01:26:01;;;;;;;7.95;5.10;;;18.90;56.60;;;;;;5072826;28;20591;-47
2021/12/15 01:28:29;;;;;;;5.65;4.30;;;18.90;56.50;;;;;;5057857;28;20048;-49
2021/12/15 01:30:58;;;;;;;5.80;5.18;;;18.90;56.50;;;;;;5038852;28;20515;-49
2021/12/15 01:33:27;;;;;;;7.25;4.78;;;18.90;56.40;;;;;;5066698;28;20042;-48
2021/12/15 01:35:56;;;;;;;5.72;4.28;;;18.90;56.40;;;;;;5072463;28;20048;-48
2021/12/15 01:38:27;;;;;;;5.25;3.85;;;18.90;56.30;;;;;;5073260;28;20045;-46
2021/12/15 01:40:55;;;;;;;5.72;4.72;;;18.90;56.30;;;;;;5054555;28;20549;-49
2021/12/15 01:43:33;;;;;;;6.07;4.07;;;18.90;56.20;;;;;;5055932;28;20546;-49
2021/12/15 01:48:57;;;;;;;5.65;3.97;;;18.90;56.10;;;;;;5060257;28;20059;-46
2021/12/15 01:51:24;;;;;;;6.93;4.18;;;18.90;56.10;;;;;;5069729;28;20064;-49
2021/12/15 01:53:51;;;;;;;6.70;4.00;;;18.80;56.00;;;;;;5068349;28;20042;-49
2021/12/15 01:56:18;;;;;;;8.38;4.93;;;18.90;56.00;;;;;;5081983;28;20036;-48
2021/12/15 01:58:46;;;;;;;5.80;4.10;;;18.80;56.00;;;;;;5070403;28;20098;-45
2021/12/15 02:01:15;;;;;;;6.15;4.32;;;18.90;56.00;;;;;;5052366;28;20128;-46
2021/12/15 02:03:42;;;;;;;5.57;3.90;;;18.80;55.90;;;;;;5065000;28;20052;-47
2021/12/15 02:06:11;;;;;;;7.88;4.65;;;18.90;55.90;;;;;;5079177;28;20819;-49
2021/12/15 02:08:39;;;;;;;3.90;3.00;;;18.90;55.90;;;;;;5072280;28;20397;-49
2021/12/15 02:11:07;;;;;;;4.55;3.65;;;18.80;55.80;;;;;;5072830;28;20135;-44
2021/12/15 02:13:34;;;;;;;7.50;4.43;;;18.80;55.80;;;;;;5071678;28;20035;-45
2021/12/15 02:16:04;;;;;;;4.30;3.55;;;18.80;55.70;;;;;;5079223;28;20063;-47
2021/12/15 02:18:35;;;;;;;7.20;4.40;;;18.80;55.70;;;;;;5057160;28;20124;-46
2021/12/15 02:21:07;;;;;;;4.43;3.53;;;18.80;55.70;;;;;;5053234;28;20044;-47
2021/12/15 02:23:43;;;;;;;4.63;3.92;;;18.80;55.60;;;;;;5080681;28;20055;-45
2021/12/15 02:26:16;;;;;;;3.92;3.35;;;18.80;55.60;;;;;;5075372;28;20044;-44
2021/12/15 02:28:46;;;;;;;5.32;2.90;;;18.80;55.60;;;;;;5071097;28;20479;-44
2021/12/15 02:31:20;;;;;;;3.25;2.65;;;18.80;55.60;;;;;;5065446;28;20056;-44
2021/12/15 02:33:57;;;;;;;3.67;3.38;;;18.80;55.50;;;;;;5066638;28;20127;-46
2021/12/15 02:39:12;;;;;;;3.90;2.78;;;18.80;55.50;;;;;;5060999;28;20041;-45
2021/12/15 02:41:40;;;;;;;4.70;3.45;;;18.80;55.40;;;;;;5069317;28;20044;-50
2021/12/15 02:44:09;;;;;;;3.42;2.95;;;18.80;56.00;;;;;;5069963;28;20148;-48
2021/12/15 02:46:38;;;;;;;3.90;3.17;;;18.80;55.40;;;;;;5075997;28;20150;-47
2021/12/15 02:49:07;;;;;;;3.00;2.70;;;18.70;55.30;;;;;;5074418;28;20036;-46
2021/12/15 02:51:36;;;;;;;4.35;3.15;;;18.80;55.40;;;;;;5078749;28;20032;-45
2021/12/15 02:54:04;;;;;;;4.93;3.53;;;18.80;55.30;;;;;;5066044;28;20045;-47
2021/12/15 02:56:31;;;;;;;2.85;2.63;;;18.70;55.30;;;;;;5068034;28;20047;-47
2021/12/15 02:59:02;;;;;;;6.20;2.85;;;18.80;55.30;;;;;;5073734;28;20044;-48
2021/12/15 03:01:38;;;;;;;4.80;2.92;;;18.80;55.30;;;;;;5070959;28;20527;-46
2021/12/15 03:06:50;;;;;;;4.53;2.75;;;18.70;55.20;;;;;;5077935;28;20085;-49
2021/12/15 03:17:43;;;;;;;3.10;2.90;;;18.70;55.10;;;;;;4984720;28;20075;-50
2021/12/15 03:20:14;;;;;;;4.68;3.33;;;18.70;55.10;;;;;;4989091;28;20050;-50
2021/12/15 03:22:43;;;;;;;3.17;2.88;;;18.70;55.10;;;;;;4989843;28;20046;-49
2021/12/15 03:25:10;;;;;;;2.78;2.45;;;18.70;55.10;;;;;;4995482;28;20511;-51
2021/12/15 03:33:34;;;;;;;4.68;2.75;;;18.70;55.00;;;;;;4984747;28;20066;-49
2021/12/15 03:36:06;;;;;;;2.42;2.15;;;18.70;55.00;;;;;;4992129;28;20684;-53
2021/12/15 03:38:35;;;;;;;3.90;1.92;;;18.70;55.00;;;;;;4992936;28;20136;-52
2021/12/15 03:41:03;;;;;;;3.45;2.80;;;18.70;55.00;;;;;;4994704;28;20046;-49
2021/12/15 03:43:33;;;;;;;4.28;2.40;;;18.70;54.90;;;;;;4992902;28;20049;-51
2021/12/15 03:46:03;;;;;;;3.42;2.40;;;18.70;54.90;;;;;;4986197;28;20074;-50
2021/12/15 03:48:35;;;;;;;4.13;2.47;;;18.70;54.90;;;;;;4984172;28;20129;-51
2021/12/15 03:51:03;;;;;;;2.80;2.60;;;18.70;55.40;;;;;;4998242;28;20068;-48
2021/12/15 03:53:30;;;;;;;2.75;2.30;;;18.70;54.80;;;;;;4986003;28;20046;-51
2021/12/15 03:55:58;;;;;;;4.72;2.45;;;18.70;54.80;;;;;;5071002;28;20047;-53
2021/12/15 03:58:26;;;;;;;3.05;2.50;;;18.70;54.80;;;;;;5066373;28;20480;-48
2021/12/15 04:01:00;;;;;;;4.25;2.42;;;18.70;54.70;;;;;;5063177;28;20040;-51
2021/12/15 04:03:31;;;;;;;3.35;1.90;;;18.70;54.70;;;;;;5064308;28;20589;-50
2021/12/15 04:06:01;;;;;;;2.55;2.33;;;18.70;54.80;;;;;;5066554;28;20040;-53
2021/12/15 04:08:29;;;;;;;2.28;2.05;;;18.70;54.70;;;;;;5077906;28;20036;-51
2021/12/15 04:10:58;;;;;;;2.78;2.50;;;18.70;54.70;;;;;;5069036;28;20052;-53
2021/12/15 04:13:25;;;;;;;2.25;2.15;;;18.70;54.70;;;;;;5070606;28;20044;-51
2021/12/15 04:15:57;;;;;;;2.00;1.60;;;18.70;54.70;;;;;;5066136;28;20580;-52
2021/12/15 04:18:25;;;;;;;4.25;2.05;;;18.70;55.20;;;;;;5063489;28;20072;-44
2021/12/15 04:20:53;;;;;;;2.85;2.55;;;18.70;54.70;;;;;;5066409;28;20059;-46
2021/12/15 04:23:20;;;;;;;2.17;1.88;;;18.70;54.60;;;;;;5055851;28;20128;-49
2021/12/15 04:25:50;;;;;;;3.88;1.70;;;18.70;54.60;;;;;;5052540;28;20043;-52
2021/12/15 04:28:20;;;;;;;2.78;2.25;;;18.60;54.60;;;;;;5054514;28;20068;-45
2021/12/15 04:30:49;;;;;;;2.50;2.13;;;18.70;54.60;;;;;;5051483;28;20036;-51
2021/12/15 04:33:23;;;;;;;2.10;1.98;;;18.70;54.60;;;;;;5052667;28;20069;-52
2021/12/15 04:35:54;;;;;;;2.75;2.55;;;18.70;54.60;;;;;;5050045;28;20045;-50
2021/12/15 04:38:22;;;;;;;2.13;1.95;;;18.60;54.50;;;;;;5061774;28;20386;-48
2021/12/15 04:40:50;;;;;;;2.22;2.05;;;18.70;54.50;;;;;;5058987;28;20044;-49
2021/12/15 04:43:18;;;;;;;1.65;1.35;;;18.60;54.50;;;;;;5051946;28;20043;-46
2021/12/15 04:45:45;;;;;;;1.92;1.42;;;18.60;54.40;;;;;;5052437;28;20055;-48
2021/12/15 04:48:12;;;;;;;2.92;2.00;;;18.60;54.40;;;;;;5050644;28;20494;-46
2021/12/15 04:50:42;;;;;;;3.15;2.25;;;18.60;54.40;;;;;;5056045;28;20044;-47
2021/12/15 04:53:10;;;;;;;3.35;1.58;;;18.60;54.40;;;;;;5052713;28;20045;-52
2021/12/15 04:55:39;;;;;;;1.45;1.10;;;18.60;54.40;;;;;;5054765;28;20041;-48
2021/12/15 04:58:07;;;;;;;2.38;1.63;;;18.60;54.40;;;;;;5054475;28;20119;-45
2021/12/15 05:00:46;;;;;;;2.55;1.90;;;18.60;54.40;;;;;;5058271;28;20448;-47
2021/12/15 05:03:13;;;;;;;5.85;2.15;;;18.60;54.50;;;;;;5047940;28;20163;-48
2021/12/15 05:05:42;;;;;;;3.50;1.90;;;18.60;54.40;;;;;;5055114;28;20045;-46
2021/12/15 05:08:09;;;;;;;7.93;2.05;;;18.60;54.40;;;;;;5059676;28;20059;-49
2021/12/15 05:10:37;;;;;;;4.70;2.35;;;18.60;54.40;;;;;;5054743;28;20052;-49
2021/12/15 05:13:07;;;;;;;4.15;2.00;;;18.60;54.40;;;;;;5053858;28;20127;-51
2021/12/15 05:15:35;;;;;;;2.28;1.90;;;18.60;54.40;;;;;;5051175;28;20037;-46
2021/12/15 05:18:03;;;;;;;3.25;2.63;;;18.60;54.40;;;;;;5053680;28;20428;-45
2021/12/15 05:20:32;;;;;;;3.40;1.65;;;18.60;54.40;;;;;;5056212;28;20037;-51
2021/12/15 05:23:02;;;;;;;3.10;1.75;;;18.60;54.40;;;;;;5053728;28;20045;-45
2021/12/15 05:25:29;;;;;;;1.63;1.52;;;18.60;54.40;;;;;;5055825;28;20595;-45
2021/12/15 05:27:56;;;;;;;1.98;1.85;;;18.60;54.40;;;;;;5048507;28;20037;-44
2021/12/15 05:30:24;;;;;;;2.70;1.92;;;18.60;54.40;;;;;;5049384;28;20052;-45
2021/12/15 05:32:51;;;;;;;3.65;2.38;;;18.60;54.40;;;;;;5053520;28;20044;-48
2021/12/15 05:35:23;;;;;;;4.72;2.58;;;18.60;54.30;;;;;;5070166;28;20063;-49
2021/12/15 05:37:52;;;;;;;2.45;2.25;;;18.60;54.40;;;;;;5061238;28;20032;-46
2021/12/15 05:40:20;;;;;;;4.93;2.45;;;18.60;54.40;;;;;;5054477;28;20048;-44
2021/12/15 05:42:48;;;;;;;4.15;2.78;;;18.50;54.30;;;;;;5060789;28;20064;-45
2021/12/15 05:45:15;;;;;;;4.15;2.65;;;18.60;54.30;;;;;;5047479;28;20068;-45
2021/12/15 05:47:43;;;;;;;2.60;2.40;;;18.60;54.30;;;;;;5050222;28;20426;-48
2021/12/15 05:50:13;;;;;;;3.25;1.75;;;18.60;54.30;;;;;;5053309;28;20063;-45
2021/12/15 05:52:41;;;;;;;8.10;2.88;;;18.60;54.30;;;;;;5050158;28;20048;-49
2021/12/15 05:55:10;;;;;;;2.50;2.30;;;18.50;54.20;;;;;;5053556;28;20366;-44
2021/12/15 05:57:38;;;;;;;2.65;2.25;;;18.50;54.20;;;;;;5056732;28;20067;-48
2021/12/15 06:00:09;;;;;;;3.60;2.50;;;18.50;54.20;;;;;;5062372;28;20532;-49
2021/12/15 06:02:38;;;;;;;5.70;2.97;;;18.50;54.30;;;;;;5061321;28;20123;-52
2021/12/15 06:05:07;;;;;;;3.22;2.65;;;18.50;54.30;;;;;;5043047;28;20054;-47
2021/12/15 06:07:34;;;;;;;5.22;2.80;;;18.50;54.20;;;;;;5058842;28;20786;-48
2021/12/15 06:10:01;;;;;;;2.53;1.80;;;18.50;54.20;;;;;;5059318;28;20055;-46
2021/12/15 06:12:29;;;;;;;3.00;2.60;;;18.50;54.20;;;;;;5057951;28;20041;-47
2021/12/15 06:14:57;;;;;;;4.57;2.28;;;18.50;54.30;;;;;;5059657;28;20047;-49
2021/12/15 06:17:26;;;;;;;3.63;2.75;;;18.50;54.20;;;;;;5061894;28;20040;-46
2021/12/15 06:19:53;;;;;;;3.40;2.80;;;18.50;54.20;;;;;;5056866;28;20033;-45
2021/12/15 06:22:25;;;;;;;3.22;1.90;;;18.50;54.30;;;;;;5061675;28;20044;-48
2021/12/15 06:24:53;;;;;;;3.30;2.35;;;18.50;54.20;;;;;;5061973;28;20041;-51
2021/12/15 06:27:21;;;;;;;3.83;2.53;;;18.50;54.20;;;;;;5052404;28;20051;-46
2021/12/15 06:29:50;;;;;;;3.95;3.17;;;18.50;54.20;;;;;;5052251;28;20045;-45
2021/12/15 06:32:19;;;;;;;3.65;1.98;;;18.50;54.20;;;;;;5054642;28;20051;-46
2021/12/15 06:34:46;;;;;;;2.55;2.35;;;18.50;54.20;;;;;;5049691;28;20045;-45
2021/12/15 06:37:14;;;;;;;2.85;2.60;;;18.50;54.20;;;;;;5053276;28;20195;-48
2021/12/15 06:39:42;;;;;;;5.43;2.53;;;18.50;54.20;;;;;;5059514;28;20055;-47
2021/12/15 06:42:09;;;;;;;2.50;1.67;;;18.50;54.20;;;;;;5050690;28;20036;-52
2021/12/15 06:44:36;;;;;;;7.75;2.17;;;18.50;54.20;;;;;;5050509;28;20051;-44
2021/12/15 06:58:23;;;;;;;2.45;2.15;;;18.50;54.30;;;;;;5052638;28;20117;-52
2021/12/15 07:00:53;;;;;;;4.32;2.45;;;18.50;54.30;;;;;;5058286;28;20032;-47
2021/12/15 07:03:21;;;;;;;6.13;2.03;;;18.50;54.40;;;;;;5058983;28;20045;-48
2021/12/15 07:05:50;;;;;;;4.15;2.42;;;18.50;54.40;;;;;;5059658;28;20123;-53
2021/12/15 07:08:18;;;;;;;1.58;1.48;;;18.50;54.40;;;;;;5059401;28;20136;-51
2021/12/15 07:10:47;;;;;;;2.50;2.25;;;18.50;54.30;;;;;;5053488;28;20902;-52
2021/12/15 07:13:16;;;;;;;2.05;1.58;;;18.50;54.30;;;;;;5054873;28;20122;-48
2021/12/15 07:15:45;;;;;;;2.20;1.55;;;18.50;54.40;;;;;;5050210;28;20059;-52
2021/12/15 07:18:15;;;;;;;10.80;2.40;;;18.50;54.40;;;;;;5047330;28;20401;-46
2021/12/15 07:20:47;;;;;;;2.85;1.75;;;18.50;54.50;;;;;;5052883;28;20390;-50
2021/12/15 07:23:18;;;;;;;2.95;1.63;;;18.50;55.20;;;;;;5062267;28;20045;-47
2021/12/15 07:25:48;;;;;;;2.90;2.65;;;18.50;54.60;;;;;;5049419;28;20041;-47
2021/12/15 07:28:17;;;;;;;3.75;1.33;;;18.50;54.60;;;;;;5055145;28;20045;-50
2021/12/15 07:30:44;;;;;;;2.10;1.98;;;18.50;54.60;;;;;;5051171;28;20124;-49
2021/12/15 07:33:12;;;;;;;5.18;1.40;;;18.50;54.60;;;;;;5049525;28;20041;-49
2021/12/15 07:35:41;;;;;;;1.73;1.63;;;18.50;54.60;;;;;;5049644;28;20037;-47
2021/12/15 07:38:09;;;;;;;2.47;1.65;;;18.50;54.60;;;;;;5060946;28;20036;-51
2021/12/15 07:40:40;;;;;;;3.35;1.73;;;18.50;54.60;;;;;;5058155;28;20033;-49
2021/12/15 07:43:11;;;;;;;4.97;2.25;;;18.50;54.60;;;;;;5048836;28;20045;-53
2021/12/15 07:45:44;;;;;;;4.80;1.83;;;18.50;54.70;;;;;;5045624;28;20080;-48
2021/12/15 07:48:15;;;;;;;2.55;1.55;;;18.50;54.80;;;;;;5048203;28;20416;-68
2021/12/15 07:50:45;;;;;;;9.35;2.45;;;18.50;55.00;;;;;;5057903;28;20542;-66
2021/12/15 07:53:12;;;;;;;6.82;1.73;;;18.50;55.20;;;;;;5061319;28;20540;-70
2021/12/15 07:55:41;;;;;;;5.60;1.92;;;18.50;55.10;;;;;;5056020;28;20053;-67
2021/12/15 07:58:10;;;;;;;4.85;1.80;;;18.50;55.30;;;;;;5055028;28;20044;-67
2021/12/15 08:00:39;;;;;;;3.55;1.65;;;18.50;55.30;;;;;;5054712;28;20036;-66
2021/12/15 08:03:06;;;;;;;6.38;1.77;;;18.50;55.20;;;;;;5048706;28;20044;-67
2021/12/15 08:05:35;;;;;;;5.63;2.40;;;18.50;55.10;;;;;;5057843;28;20776;-67
2021/12/15 08:08:02;;;;;;;4.93;2.00;;;18.50;55.10;;;;;;5057988;28;20413;-67
2021/12/15 08:10:31;;;;;;;2.38;1.85;;;18.50;55.00;;;;;;5052719;28;20147;-67
2021/12/15 08:12:59;;;;;;;2.17;1.88;;;18.50;54.90;;;;;;5054398;28;20041;-68
2021/12/15 08:15:27;;;;;;;4.95;1.95;;;18.50;54.80;;;;;;5052681;28;20102;-68
2021/12/15 08:17:54;;;;;;;3.63;2.30;;;18.50;54.80;;;;;;5065265;28;20099;-68
2021/12/15 08:20:24;;;;;;;2.20;2.03;;;18.50;54.70;;;;;;5056244;28;20172;-68
2021/12/15 08:22:52;;;;;;;2.45;1.50;;;18.50;54.70;;;;;;5056981;28;20147;-67
2021/12/15 08:25:20;;;;;;;3.58;2.10;;;18.50;54.60;;;;;;5051399;28;20079;-67
2021/12/15 08:27:49;;;;;;;4.15;2.40;;;18.50;54.60;;;;;;5051562;28;20052;-67
2021/12/15 08:30:21;;;;;;;3.17;1.98;;;18.50;54.50;;;;;;5052557;28;20044;-68
2021/12/15 08:32:50;;;;;;;1.70;1.23;;;18.50;54.40;;;;;;5054047;28;20107;-67
2021/12/15 08:35:19;;;;;;;4.22;1.67;;;18.50;54.40;;;;;;5052790;28;20502;-67
2021/12/15 08:37:46;;;;;;;3.55;1.52;;;18.50;54.30;;;;;;5061141;28;20051;-67
2021/12/15 08:40:17;;;;;;;7.15;2.72;;;18.50;54.30;;;;;;5063153;28;20044;-67
2021/12/15 08:42:44;;;;;;;3.33;1.70;;;18.50;54.20;;;;;;5054386;28;20595;-68
2021/12/15 08:45:12;;;;;;;5.93;2.63;;;18.50;54.20;;;;;;5048146;28;20033;-67
2021/12/15 08:47:41;;;;;;;4.25;1.85;;;18.50;54.10;;;;;;5055450;28;20109;-67
2021/12/15 08:50:12;;;;;;;4.13;2.50;;;18.50;54.10;;;;;;5059048;28;20045;-68
2021/12/15 08:52:40;;;;;;;4.32;2.30;;;18.50;54.00;;;;;;5052272;28;20128;-67
2021/12/15 08:55:09;;;;;;;2.58;2.03;;;18.50;54.00;;;;;;5055520;28;20049;-66
2021/12/15 08:57:37;;;;;;;8.45;2.35;;;18.50;53.90;;;;;;5063952;28;20045;-66
2021/12/15 09:00:06;;;;;;;3.92;2.55;;;18.50;53.90;;;;;;5053389;28;20037;-67
2021/12/15 09:02:35;;;;;;;4.13;2.40;;;18.50;53.90;;;;;;5053480;28;20047;-66
2021/12/15 09:05:05;;;;;;;4.47;2.55;;;18.50;53.90;;;;;;5055268;28;20037;-67
2021/12/15 09:07:33;;;;;;;2.63;2.08;;;18.50;53.80;;;;;;5061355;28;20090;-68
2021/12/15 09:10:00;;;;;;;4.65;2.63;;;18.50;53.80;;;;;;5059943;28;20072;-67
2021/12/15 09:12:27;;;;;;;2.28;2.05;;;18.50;53.70;;;;;;5049221;28;20124;-66
2021/12/15 09:14:54;;;;;;;2.85;1.60;;;18.50;53.70;;;;;;5054016;28;20037;-66
2021/12/15 09:17:21;;;;;;;7.18;2.45;;;18.50;53.70;;;;;;5059059;28;20579;-67
2021/12/15 09:19:48;;;;;;;2.17;1.67;;;18.50;53.60;;;;;;5059583;28;20028;-67
2021/12/15 09:22:17;;;;;;;4.93;1.98;;;18.50;53.60;;;;;;5062076;28;20071;-67
2021/12/15 09:24:44;;;;;;;3.67;1.52;;;18.50;53.60;;;;;;5051647;28;20577;-65
2021/12/15 09:27:11;;;;;;;3.95;1.52;;;18.50;53.50;;;;;;5046946;28;20045;-66
2021/12/15 09:29:38;;;;;;;2.50;1.50;;;18.50;53.50;;;;;;5050976;28;20048;-67
2021/12/15 09:32:05;;;;;;;2.90;1.70;;;18.50;53.50;;;;;;5059306;28;20213;-67
2021/12/15 09:34:33;;;;;;;1.42;1.02;;;18.50;53.50;;;;;;5052856;28;20068;-67
2021/12/15 09:37:02;;;;;;;3.55;1.65;;;18.50;53.40;;;;;;5048948;28;20504;-68
2021/12/15 09:39:31;;;;;;;2.00;1.27;;;18.50;53.30;;;;;;5061694;28;20401;-68
2021/12/15 09:41:59;;;;;;;2.28;1.73;;;18.50;53.30;;;;;;5051938;28;20041;-67
2021/12/15 09:44:28;;;;;;;2.55;1.10;;;18.50;53.30;;;;;;5052391;28;20151;-67
2021/12/15 09:47:22;;;;;;;5.75;1.17;;;18.60;53.30;;;;;;5055942;28;20048;-65
2021/12/15 10:03:48;;;;;;;3.38;1.17;;;18.50;53.20;;;;;;5049466;28;20777;-66
2021/12/15 10:06:28;;;;;;;4.50;1.35;;;18.50;53.10;;;;;;5049197;28;20135;-65
2021/12/15 10:11:48;;;;;;;2.25;1.10;;;18.50;53.00;;;;;;5047069;28;20048;-66
2021/12/15 10:19:52;;;;;;;2.15;0.85;;;18.50;53.00;;;;;;5052059;28;20128;-65
2021/12/15 10:22:26;;;;;;;3.15;0.43;;;18.50;52.90;;;;;;5055448;28;20036;-66
2021/12/15 10:24:56;;;;;;;0.80;0.80;;;18.50;52.90;;;;;;5051653;28;20040;-66
2021/12/15 10:27:37;;;;;;;1.30;0.93;;;18.50;52.80;;;;;;5052318;28;20029;-66
2021/12/15 10:30:21;;;;;;;1.25;0.73;;;18.60;52.80;;;;;;5048752;28;20044;-66
2021/12/15 10:32:53;;;;;;;0.77;0.70;;;18.60;52.80;;;;;;5051099;28;20132;-66
2021/12/15 10:35:23;;;;;;;1.48;0.82;;;18.60;52.80;;;;;;5051600;28;20561;-66
2021/12/15 10:38:20;;;;;;;2.95;0.70;;;18.60;52.80;;;;;;5060273;28;20436;-66
2021/12/15 10:40:54;;;;;;;1.38;1.27;;;18.60;52.70;;;;;;5056710;28;20037;-67
2021/12/15 10:43:28;;;;;;;3.33;0.52;;;18.60;52.70;;;;;;5049890;28;20500;-67
2021/12/15 10:45:58;;;;;;;2.97;1.10;;;18.50;53.00;;;;;;5051220;28;20072;-66
2021/12/15 10:48:35;;;;;;;1.85;1.00;;;18.60;52.70;;;;;;5046978;28;20044;-65
2021/12/15 10:51:05;;;;;;;1.50;1.00;;;18.60;52.70;;;;;;5051954;28;20068;-66
2021/12/15 10:53:36;;;;;;;2.15;1.02;;;18.60;52.70;;;;;;5051718;28;20051;-67
2021/12/15 10:56:11;;;;;;;1.10;0.80;;;18.60;52.60;;;;;;5049826;28;20037;-66
2021/12/15 10:58:42;;;;;;;1.43;0.90;;;18.60;52.60;;;;;;5056120;28;20040;-66
2021/12/15 11:01:31;;;;;;;2.17;1.45;;;18.60;52.50;;;;;;5050706;28;20048;-66
2021/12/15 11:04:00;;;;;;;1.48;1.20;;;18.60;52.40;;;;;;5052200;28;20609;-66
2021/12/15 11:06:33;;;;;;;3.25;1.05;;;18.60;52.50;;;;;;5046932;28;20818;-66
2021/12/15 11:09:17;;;;;;;0.80;0.77;;;18.60;52.40;;;;;;5057372;28;20144;-67
2021/12/15 11:12:00;;;;;;;1.02;0.52;;;18.60;52.40;;;;;;5048003;28;20819;-64
2021/12/15 11:14:31;;;;;;;2.08;1.05;;;18.60;52.40;;;;;;5053748;28;20045;-66
2021/12/15 11:17:17;;;;;;;2.45;1.65;;;18.60;52.40;;;;;;5050028;28;20123;-66
2021/12/15 11:19:52;;;;;;;2.15;1.25;;;18.60;52.40;;;;;;5052924;28;20052;-66
2021/12/15 11:22:59;;;;;;;2.07;1.07;;;18.60;52.50;;;;;;5054661;28;20044;-66
2021/12/15 11:25:42;;;;;;;1.10;0.98;;;18.60;52.40;;;;;;5049899;28;20399;-66
2021/12/15 11:28:16;;;;;;;2.90;1.35;;;18.60;52.40;;;;;;5052035;28;20040;-65
2021/12/15 11:30:49;;;;;;;3.28;1.00;;;18.60;52.40;;;;;;5055150;28;20032;-67
2021/12/15 11:33:19;;;;;;;1.88;1.20;;;18.60;52.40;;;;;;5052469;28;20043;-67
2021/12/15 11:35:49;;;;;;;2.03;1.20;;;18.60;53.00;;;;;;5052860;28;20041;-65
2021/12/15 11:38:20;;;;;;;2.50;1.10;;;18.60;52.30;;;;;;5066760;28;20047;-65
2021/12/15 11:41:01;;;;;;;1.33;1.02;;;18.60;52.30;;;;;;5061488;28;20033;-67
2021/12/15 11:43:31;;;;;;;1.58;1.48;;;18.60;52.30;;;;;;5060689;28;20417;-67
2021/12/15 11:46:01;;;;;;;2.47;1.23;;;18.60;52.30;;;;;;5061421;28;20137;-67
2021/12/15 11:48:32;;;;;;;2.60;1.05;;;18.60;52.20;;;;;;5053281;28;20443;-66
2021/12/15 11:51:03;;;;;;;2.05;1.13;;;18.60;52.20;;;;;;5059428;28;20094;-67
2021/12/15 11:53:43;;;;;;;3.00;1.67;;;18.60;52.20;;;;;;5055029;28;20159;-67
2021/12/15 11:56:23;;;;;;;2.53;2.33;;;18.60;52.20;;;;;;5060697;28;20045;-67
2021/12/15 11:58:53;;;;;;;2.80;1.35;;;18.60;52.20;;;;;;5061596;28;20056;-68
2021/12/15 12:01:43;;;;;;;3.92;1.10;;;18.60;52.20;;;;;;5060586;28;20112;-67
2021/12/15 12:04:14;;;;;;;1.83;1.73;;;18.60;52.10;;;;;;5057015;28;20564;-66
2021/12/15 12:06:41;;;;;;;4.57;1.48;;;18.60;52.20;;;;;;5063663;28;20390;-66
2021/12/15 12:09:08;;;;;;;1.83;1.00;;;18.60;52.20;;;;;;5060874;28;20037;-65
2021/12/15 12:11:40;;;;;;;1.50;1.40;;;18.60;52.10;;;;;;5058682;28;20052;-66
2021/12/15 12:14:17;;;;;;;4.53;2.20;;;18.60;52.10;;;;;;5059176;28;20136;-68
2021/12/15 12:16:47;;;;;;;1.85;1.52;;;18.60;52.10;;;;;;5052929;28;20037;-65
2021/12/15 12:19:14;;;;;;;2.75;2.40;;;18.60;52.10;;;;;;5060422;28;20378;-65
2021/12/15 12:21:42;;;;;;;1.73;1.63;;;18.60;52.10;;;;;;5056070;28;20032;-66
2021/12/15 12:24:16;;;;;;;2.42;1.65;;;18.60;52.10;;;;;;5053490;28;20520;-66
2021/12/15 12:26:45;;;;;;;4.07;1.65;;;18.60;52.00;;;;;;5051303;28;20049;-65
2021/12/15 12:29:12;;;;;;;2.15;1.35;;;18.60;52.00;;;;;;5058990;28;20041;-65
2021/12/15 12:31:39;;;;;;;2.75;1.45;;;18.60;52.00;;;;;;5057209;28;20106;-66
2021/12/15 12:34:08;;;;;;;4.57;2.38;;;18.60;52.00;;;;;;5051184;28;20037;-67
2021/12/15 12:36:36;;;;;;;1.85;1.10;;;18.60;52.00;;;;;;5051271;28;20056;-66
2021/12/15 12:39:08;;;;;;;1.90;0.88;;;18.60;52.00;;;;;;5054189;28;20045;-66
2021/12/15 12:41:40;;;;;;;1.52;0.80;;;18.60;52.00;;;;;;5059419;28;20045;-65
2021/12/15 12:44:11;;;;;;;1.83;1.73;;;18.60;52.00;;;;;;5053772;28;20049;-66
2021/12/15 12:46:44;;;;;;;2.00;1.20;;;18.60;51.90;;;;;;5055929;28;20128;-67
2021/12/15 12:49:49;;;;;;;1.55;1.10;;;18.60;51.90;;;;;;5056488;28;20048;-65
2021/12/15 13:01:03;;;;;;;1.52;1.42;;;18.60;52.00;;;;;;4993489;28;20189;-65
2021/12/15 13:03:34;;;;;;;1.77;1.38;;;18.60;52.00;;;;;;4987725;28;20053;-65
2021/12/15 13:06:06;;;;;;;1.73;0.93;;;18.60;52.00;;;;;;5000564;28;20042;-65
2021/12/15 13:08:40;;;;;;;1.45;1.35;;;18.60;51.90;;;;;;4986150;28;20050;-65
2021/12/15 13:11:17;;;;;;;1.73;1.40;;;18.60;51.90;;;;;;4989928;28;20146;-65
2021/12/15 13:13:55;;;;;;;2.25;1.52;;;18.60;51.90;;;;;;4994733;28;20727;-67
2021/12/15 13:16:35;;;;;;;3.35;1.65;;;18.60;51.80;;;;;;4989629;28;20046;-66
2021/12/15 13:19:13;;;;;;;1.77;1.63;;;18.60;51.80;;;;;;4991929;28;20056;-66
2021/12/15 13:22:00;;;;;;;1.88;0.80;;;18.60;51.80;;;;;;4988697;28;20073;-66
2021/12/15 13:30:28;;;;;;;1.63;0.90;;;18.60;51.80;;;;;;5050784;28;20064;-67
2021/12/15 13:33:02;;;;;;;1.00;0.60;;;18.60;51.80;;;;;;5063368;28;20083;-67
2021/12/15 13:35:37;;;;;;;2.15;1.35;;;18.60;51.80;;;;;;5052459;28;20047;-67
2021/12/15 13:38:06;;;;;;;2.25;1.05;;;18.60;51.80;;;;;;5058549;28;20048;-66
2021/12/15 13:40:59;;;;;;;2.15;0.77;;;18.60;51.80;;;;;;5058843;28;20538;-66
2021/12/15 13:43:42;;;;;;;1.17;1.08;;;18.60;51.70;;;;;;5052084;28;20052;-67
2021/12/15 13:46:23;;;;;;;1.48;0.88;;;18.60;51.70;;;;;;5061143;28;20040;-67
2021/12/15 13:49:04;;;;;;;4.60;0.93;;;18.60;51.70;;;;;;5050912;28;20044;-67
2021/12/15 13:51:58;;;;;;;2.10;1.27;;;18.60;51.70;;;;;;5052768;28;20120;-67
2021/12/15 13:54:55;;;;;;;2.45;1.10;;;18.70;51.70;;;;;;5047845;28;20770;-65
2021/12/15 13:57:25;;;;;;;1.23;1.13;;;18.60;51.60;;;;;;5048326;28;20549;-67
2021/12/15 14:00:05;;;;;;;1.70;1.05;;;18.60;51.70;;;;;;5049197;28;20520;-66
2021/12/15 14:02:42;;;;;;;1.38;1.15;;;18.60;51.70;;;;;;5049155;28;20049;-67
2021/12/15 14:05:22;;;;;;;2.20;1.40;;;18.60;51.70;;;;;;5057772;28;20048;-67
2021/12/15 14:07:51;;;;;;;1.02;0.88;;;18.60;51.60;;;;;;5056335;28;20688;-67
2021/12/15 14:10:56;;;;;;;2.17;1.20;;;18.60;51.60;;;;;;5059531;28;20076;-67
2021/12/15 14:13:38;;;;;;;1.42;0.80;;;18.60;51.50;;;;;;5055256;28;20055;-66
2021/12/15 14:16:07;;;;;;;1.95;1.60;;;18.60;51.60;;;;;;5058102;28;20098;-67
2021/12/15 14:18:35;;;;;;;1.50;1.40;;;18.60;51.60;;;;;;5049011;28;20072;-67
2021/12/15 14:21:06;;;;;;;1.27;1.08;;;18.60;51.60;;;;;;5050159;28;20082;-68